BYR weather

Læsø Airport
Læsø, North Jutland, Denmark

Public forecast

Using degrees Celsius for public forecast. Weather courtesy of forecast.io.

METAR (pilot weather report)

Report is more than 6 hours old.

Closest report is Sindal Airport, 28.4 nm (52.6 km) WNW. Retrieved 2019/05/24 11:50 UTC (18 hours ago):

EKSN 241150Z 26018KT 9999 FEW020 BKN050 12/09 Q1005

TAF (pilot weather forecast)

Closest forecast is Aalborg Airport, 39.0 nm (72.3 km) WSW. Retrieved 2019/05/25 03:19 UTC (2 hours ago):

TAF EKYT 250204Z 2503/2603 27015KT 9999 SCT020 TEMPO 2503/2507 6000 BKN008 TEMPO 2509/2518 29018G28KT TEMPO 2518/2603 27015G25KT 7000 -SHRA BKN015TCU